Istanbul to Mumbai | From the Ottomans to the Marathas @LTFM - 140830ZMAY20

Let’s have a flight from the seat of the former Ottoman Empire to the area where the Maratha Empire took its root. ATC services for both Istanbul and Mumbai put the cherry on top of this flight.

Flight: Istanbul, Turkey (LTFM) to Mumbai, India (VABB)

  • Aircraft and Livery: Any livery is fine. I’ll be using a Turkish A350.

  • Route: LTFM FM070 FM080 GATTA FM081 FM082 FM083 FM084 ETLEY FM085 FM086 OSMEV 4160N/3053E ERMUP ROKVA NAPIP UNVUS ASMOB RELTU APTOX TEPKI PIPUR ORMAN ERGUN ASVOD KONUK EVSAS VAN ZELSU BONAM TUDNU PARAS GETOB AMBEX ZAJ SUTBU MIVAK RUS IKA ELEDI RADAL ROVAD NODLA SOGOT NIVRA DAR BOPAG TOVUS DAPAP ZDN DANIB KEBUD PG DOSTI KAJAL 2455N/6710E NIROL MINAR SAPNA RUPAM IGANU KARKU EXOLU 1957N/7152E POKON MB379 MB391 MB403 1907N/7301E VABB

  • Time of Departure: 2020-05-14T08:35:00Z2020-05-14T14:00:00Z

  • Server: Expert

Flight time: 5.5 hours (expected)
We will be spawning around Concourse B at Istanbul.


Summary
  • Additional Information (lazy copy and paste):
Airport Code LTFM VABB
Elevation 325 40
Planned Runway 17L 27
Current Weather 2020/05/14 06:20
LTFM 140620Z 21010KT 4500 BR SCT004 16/14 Q1018 BECMG TL 0650 CAVOK 2020/05/14 06:30
VABB 140630Z 26012KT 5000 HZ NSC 33/26 Q1007 NOSIG
SID/STAR OSME2G (SID) POKO1A (STAR)
Aircraft A350-900
Flight Level 37,000
Plan Distance 2,824 NM
Flight Time 5:36
Block Fuel 38,866 kgs
V-Speeds (KIAS) V1=N/A VR=N/A V2=N/A
V-Speeds are not available with certain aircraft. When using Simbrief Classic, please change plan fomat to JBU
Climb Profile 250/320/85
Descent Profile 85/300/250
Passenger Count 310
1 Like

Thank you for your help

1 Like

Final call for anyone if they want to come.

Are you up in the air?

yes we departed about 45 mins ago